Armada, Nebraska
Current Conditions -  °F | °C
As of 9:35 PM on Monday 22 Dec 2014 (Local Time) from KEAR Reporting Station
Overcast Overcast  
Wind Chill: 27°   Ceiling: 5500
Heat Index: 36°   Visibility: 10mi
Dew Point: 30°   Wind: 14mph
Humidity: 81%   Direction: 270°W
Pressure: 29.56"   Gusts: 20mph
Location:  40.9599°N, 99.3688°W
Report Text: KEAR 230335Z 27012G17KT 10SM FEW025 OVC055 02/M01 A2956 RMK AO1
Loading
Personal Weather Stations






























Interactive Weather Map New forecast layout! Learn more

10-Day Weather Forecast

Advertisements
Track Severe Weather on mobile